createdAt,value
2023-12-05T00:04:37.709Z,10.32
2023-12-05T00:09:40.965Z,10.98
2023-12-05T00:14:45.405Z,9.65
2023-12-05T00:19:48.395Z,9.88
2023-12-05T00:24:51.439Z,10.13
2023-12-05T00:29:55.820Z,11.25
2023-12-05T00:34:58.798Z,11.90
2023-12-05T00:40:01.718Z,10.52
2023-12-05T00:45:07.312Z,12.02
2023-12-05T00:50:11.118Z,12.23
2023-12-05T00:55:14.338Z,11.88
2023-12-05T01:00:20.431Z,12.30
2023-12-05T01:05:24.306Z,12.77
2023-12-05T01:10:27.585Z,12.68
2023-12-05T01:15:32.058Z,12.27
2023-12-05T01:20:35.706Z,11.95
2023-12-05T01:25:38.757Z,12.70
2023-12-05T01:30:43.250Z,11.52
2023-12-05T01:35:46.183Z,10.80
2023-12-05T01:40:49.148Z,10.48
2023-12-05T01:45:54.647Z,10.65
2023-12-05T01:50:58.265Z,11.02
2023-12-05T01:56:04.374Z,11.90
2023-12-05T02:01:11.029Z,11.10
2023-12-05T02:06:14.584Z,10.32
2023-12-05T02:11:18.380Z,11.18
2023-12-05T02:16:31.159Z,11.40
2023-12-05T02:21:38.870Z,10.35
2023-12-05T02:26:49.160Z,10.10
2023-12-05T02:31:54.550Z,11.20
2023-12-05T02:37:05.773Z,10.55
2023-12-05T02:42:14.095Z,10.73
2023-12-05T02:47:21.553Z,11.68
2023-12-05T02:52:24.797Z,11.02
2023-12-05T02:57:27.734Z,11.50
2023-12-05T03:02:32.055Z,11.88
2023-12-05T03:07:35.099Z,11.38
2023-12-05T03:12:38.068Z,11.93
2023-12-05T03:17:42.461Z,12.05
2023-12-05T03:22:45.512Z,11.63
2023-12-05T03:27:49.020Z,13.18
2023-12-05T03:32:53.442Z,11.93
2023-12-05T03:37:56.389Z,11.80
2023-12-05T03:42:59.318Z,11.73
2023-12-05T03:48:03.877Z,11.20
2023-12-05T03:53:07.033Z,12.10
2023-12-05T03:58:10.218Z,10.18
2023-12-05T04:03:15.611Z,12.27
2023-12-05T04:08:18.640Z,12.55
2023-12-05T04:13:29.549Z,12.48
2023-12-05T04:18:35.391Z,12.10
2023-12-05T04:23:38.305Z,12.13
2023-12-05T04:28:41.251Z,12.43
2023-12-05T04:33:45.808Z,12.25
2023-12-05T04:38:48.773Z,14.43
2023-12-05T04:43:51.854Z,12.40
2023-12-05T04:48:56.236Z,11.73
2023-12-05T04:53:59.375Z,12.02
2023-12-05T04:59:02.272Z,11.32
2023-12-05T05:04:06.856Z,12.07
2023-12-05T05:09:09.817Z,12.57
2023-12-05T05:14:12.924Z,11.88
2023-12-05T05:19:17.286Z,12.60
2023-12-05T05:24:20.254Z,12.23
2023-12-05T05:29:23.350Z,11.52
2023-12-05T05:34:27.932Z,12.23
2023-12-05T05:39:31.082Z,10.77
2023-12-05T05:44:34.107Z,11.75
2023-12-05T05:49:38.697Z,11.48
2023-12-05T05:54:42.403Z,11.27
2023-12-05T05:59:45.581Z,11.68
2023-12-05T06:04:50.254Z,12.52
2023-12-05T06:09:53.622Z,11.77
2023-12-05T06:14:56.664Z,12.05
2023-12-05T06:20:00.981Z,12.88
2023-12-05T06:25:04.024Z,12.02
2023-12-05T06:30:16.630Z,12.63
2023-12-05T06:35:27.885Z,13.50
2023-12-05T06:40:30.864Z,13.77
2023-12-05T06:45:35.766Z,13.38
2023-12-05T06:50:40.136Z,12.98
2023-12-05T06:55:43.431Z,14.25
2023-12-05T07:00:46.509Z,14.30
2023-12-05T07:05:51.014Z,13.40
2023-12-05T07:10:54.044Z,5.10
2023-12-05T07:15:57.849Z,20.27
2023-12-05T07:21:02.722Z,18.88
2023-12-05T07:26:07.128Z,9.35
2023-12-05T07:31:10.166Z,8.98
2023-12-05T07:36:15.671Z,9.55
2023-12-05T07:41:23.592Z,10.10
2023-12-05T07:46:26.905Z,11.20
2023-12-05T07:51:31.360Z,12.80
2023-12-05T07:56:34.631Z,13.65
2023-12-05T08:01:37.602Z,14.65
2023-12-05T08:06:42.018Z,15.32
2023-12-05T08:11:45.117Z,16.23
2023-12-05T08:16:48.181Z,15.05
2023-12-05T08:21:52.917Z,16.40
2023-12-05T08:26:57.009Z,16.92
2023-12-05T08:32:00.261Z,15.48
2023-12-05T08:37:05.937Z,16.85
2023-12-05T08:42:09.211Z,17.50
2023-12-05T08:47:12.715Z,16.35
2023-12-05T08:52:17.084Z,16.75
2023-12-05T08:57:20.277Z,16.33
2023-12-05T09:02:25.346Z,17.45
2023-12-05T09:07:30.350Z,16.67
2023-12-05T09:12:33.513Z,17.92
2023-12-05T09:17:37.672Z,17.23
2023-12-05T09:22:43.036Z,16.80
2023-12-05T09:27:46.997Z,16.23
2023-12-05T09:32:50.019Z,17.85
2023-12-05T09:37:54.543Z,19.88
2023-12-05T09:43:01.647Z,19.38
2023-12-05T09:48:10.176Z,19.40
2023-12-05T09:53:19.408Z,18.15
2023-12-05T09:58:25.653Z,17.77
2023-12-05T10:03:35.198Z,16.88
2023-12-05T10:08:40.659Z,19.42
2023-12-05T10:13:43.800Z,17.95
2023-12-05T10:18:48.852Z,16.58
2023-12-05T10:23:54.428Z,16.08
2023-12-05T10:28:58.535Z,15.27
2023-12-05T10:34:07.121Z,16.45
2023-12-05T10:39:11.824Z,15.80
2023-12-05T10:44:16.148Z,17.20
2023-12-05T10:49:19.812Z,14.85
2023-12-05T10:54:24.240Z,16.17
2023-12-05T10:59:29.432Z,16.88
2023-12-05T11:04:33.344Z,16.60
2023-12-05T11:09:37.905Z,14.38
2023-12-05T11:14:45.256Z,14.27
2023-12-05T11:20:07.510Z,15.40
2023-12-05T11:25:37.474Z,13.88
2023-12-05T11:30:56.194Z,15.07
2023-12-05T11:36:07.147Z,14.93
2023-12-05T11:41:20.673Z,14.13
2023-12-05T11:46:23.593Z,13.77
2023-12-05T11:51:26.648Z,13.57
2023-12-05T11:56:31.574Z,13.50
2023-12-05T12:01:34.650Z,13.18
2023-12-05T12:06:38.145Z,13.48
2023-12-05T12:11:43.551Z,13.23
2023-12-05T12:16:52.302Z,11.93
2023-12-05T12:21:55.702Z,12.20
2023-12-05T12:27:00.257Z,11.73
2023-12-05T12:32:11.913Z,11.05
2023-12-05T12:37:20.976Z,10.20
2023-12-05T12:42:26.834Z,11.75
2023-12-05T12:47:29.895Z,11.27
2023-12-05T12:52:33.154Z,10.27
2023-12-05T12:57:37.928Z,9.80
2023-12-05T13:02:40.869Z,10.60
2023-12-05T13:07:43.838Z,9.68
2023-12-05T13:12:48.262Z,9.13
2023-12-05T13:17:59.433Z,9.77
2023-12-05T13:23:02.648Z,11.10
2023-12-05T13:28:07.172Z,11.88
2023-12-05T13:33:12.736Z,10.95
2023-12-05T13:38:16.405Z,10.90
2023-12-05T13:43:20.729Z,11.52
2023-12-05T13:48:23.827Z,11.02
2023-12-05T13:53:26.865Z,10.35
2023-12-05T13:58:31.506Z,10.98
2023-12-05T14:03:34.827Z,9.63
2023-12-05T14:08:38.632Z,9.77
2023-12-05T14:13:43.001Z,10.77
2023-12-05T14:18:46.051Z,9.55
2023-12-05T14:23:49.075Z,10.43
2023-12-05T14:28:53.423Z,9.88
2023-12-05T14:33:57.909Z,11.13
2023-12-05T14:39:07.778Z,10.32
2023-12-05T14:44:15.745Z,9.27
2023-12-05T14:49:18.893Z,9.60
2023-12-05T14:54:22.898Z,9.75
2023-12-05T14:59:27.466Z,9.20
2023-12-05T15:04:30.434Z,8.57
2023-12-05T15:09:34.741Z,10.30
2023-12-05T15:14:39.258Z,10.13
2023-12-05T15:20:17.419Z,9.18
2023-12-05T15:25:07.324Z,9.20
2023-12-05T15:30:13.926Z,10.13
2023-12-05T15:35:17.377Z,9.10
2023-12-05T15:40:20.543Z,10.68
2023-12-05T15:45:25.240Z,9.45
2023-12-05T15:50:28.502Z,10.57
2023-12-05T15:55:33.545Z,12.00
2023-12-05T16:00:38.081Z,11.10
2023-12-05T16:05:41.346Z,12.13
2023-12-05T16:10:46.336Z,12.13
2023-12-05T16:15:50.879Z,13.10
2023-12-05T16:20:54.014Z,12.05
2023-12-05T16:26:00.210Z,13.15
2023-12-05T16:31:05.466Z,14.13
2023-12-05T16:36:10.343Z,13.18
2023-12-05T16:41:15.003Z,13.43
2023-12-05T16:46:20.009Z,13.18
2023-12-05T16:51:24.789Z,12.30
2023-12-05T16:56:29.357Z,13.10
2023-12-05T17:01:33.866Z,12.10
2023-12-05T17:06:37.383Z,13.20
2023-12-05T17:11:40.565Z,14.35
2023-12-05T17:16:44.865Z,14.73
2023-12-05T17:21:47.897Z,16.10
2023-12-05T17:26:50.950Z,15.27
2023-12-05T17:31:55.293Z,16.25
2023-12-05T17:36:58.589Z,17.65
2023-12-05T17:42:01.606Z,16.92
2023-12-05T17:47:06.062Z,14.43
2023-12-05T17:52:09.784Z,14.93
2023-12-05T17:57:13.217Z,14.43
2023-12-05T18:02:18.825Z,14.80
2023-12-05T18:07:52.288Z,16.48
2023-12-05T18:12:45.417Z,16.50
2023-12-05T18:17:50.039Z,17.10
2023-12-05T18:22:53.072Z,15.82
2023-12-05T18:27:56.049Z,17.25
2023-12-05T18:33:00.528Z,16.88
2023-12-05T18:38:03.667Z,21.35
2023-12-05T18:43:06.670Z,23.88
2023-12-05T18:48:11.571Z,21.20
2023-12-05T18:53:14.704Z,20.92
2023-12-05T18:58:17.736Z,20.58
2023-12-05T19:03:22.243Z,22.08
2023-12-05T19:08:26.105Z,20.00
2023-12-05T19:13:29.102Z,19.33
2023-12-05T19:18:34.049Z,25.70
2023-12-05T19:23:37.946Z,19.38
2023-12-05T19:28:46.702Z,18.00
2023-12-05T19:33:55.856Z,19.63
2023-12-05T19:38:58.948Z,17.77
2023-12-05T19:44:01.991Z,18.73
2023-12-05T19:49:06.677Z,16.67
2023-12-05T19:54:09.699Z,17.15
2023-12-05T19:59:12.895Z,15.43
2023-12-05T20:04:17.404Z,15.23
2023-12-05T20:09:23.127Z,13.95
2023-12-05T20:14:26.463Z,13.32
2023-12-05T20:19:31.681Z,13.13
2023-12-05T20:24:34.888Z,14.05
2023-12-05T20:29:37.950Z,8.52
2023-12-05T20:34:42.576Z,6.47
2023-12-05T20:39:45.712Z,4.57
2023-12-05T20:44:48.855Z,6.05
2023-12-05T20:49:56.925Z,4.75
2023-12-05T20:55:00.386Z,6.20
2023-12-05T21:00:04.460Z,6.13
2023-12-05T21:05:09.387Z,5.35
2023-12-05T21:10:12.638Z,6.30
2023-12-05T21:15:15.666Z,3.20
2023-12-05T21:20:22.141Z,5.65
2023-12-05T21:25:26.260Z,6.70
2023-12-05T21:30:31.695Z,6.50
2023-12-05T21:35:36.200Z,5.18
2023-12-05T21:40:39.168Z,6.70
2023-12-05T21:45:44.202Z,3.35
2023-12-05T21:50:48.861Z,6.30
2023-12-05T21:55:51.829Z,5.75
2023-12-05T22:00:54.912Z,6.50
2023-12-05T22:05:59.290Z,6.43
2023-12-05T22:11:02.829Z,5.05
2023-12-05T22:16:06.529Z,6.25
2023-12-05T22:21:14.254Z,6.63
2023-12-05T22:26:22.106Z,5.57
2023-12-05T22:31:27.749Z,6.20
2023-12-05T22:36:32.833Z,6.20
2023-12-05T22:41:35.940Z,7.50
2023-12-05T22:46:39.087Z,7.47
2023-12-05T22:51:44.056Z,7.22
2023-12-05T22:56:47.091Z,7.40
2023-12-05T23:01:50.124Z,7.60
2023-12-05T23:06:54.499Z,5.85
2023-12-05T23:11:57.632Z,7.43
2023-12-05T23:17:06.934Z,6.68
2023-12-05T23:22:12.176Z,7.13
2023-12-05T23:27:15.165Z,6.75
2023-12-05T23:32:18.130Z,7.35
2023-12-05T23:37:23.584Z,7.40
2023-12-05T23:42:27.777Z,8.63
2023-12-05T23:47:31.187Z,8.98
2023-12-05T23:52:35.552Z,10.95
2023-12-05T23:57:38.511Z,11.32
